Time;durP1;ratioP1;P1;durP2;ratioP2;P2;SDS_P1;SDS_P2;PMS_P1;PMS_P2;Temp;Humidity;BMP_temperature;BMP_pressure;BME280_temperature;BME280_humidity;BME280_pressure;Samples;Min_cycle;Max_cycle;Signal;HPM_P1;HPM_P2
2022/01/20 00:04:13;;;;;;;7.60;4.70;;;13.00;48.20;;;;;;216001;1293;24431;-56
2022/01/20 00:37:14;;;;;;;9.00;4.50;;;13.00;48.30;;;;;;215832;1292;22586;-53
2022/01/20 00:40:55;;;;;;;7.40;4.30;;;12.90;48.30;;;;;;215750;1293;25395;-56
2022/01/20 00:45:59;;;;;;;8.70;4.50;;;13.00;48.30;;;;;;215760;1293;25362;-58
2022/01/20 00:51:14;;;;;;;5.90;4.10;;;12.90;48.30;;;;;;215890;1293;24362;-55
2022/01/20 00:56:20;;;;;;;7.30;4.20;;;12.90;48.30;;;;;;215684;1293;24469;-56
2022/01/20 01:01:27;;;;;;;8.90;4.30;;;13.00;48.20;;;;;;216014;1293;22861;-56
2022/01/20 01:06:42;;;;;;;6.90;4.30;;;12.90;48.30;;;;;;215973;1293;22741;-58
2022/01/20 01:11:48;;;;;;;7.70;3.70;;;13.00;48.30;;;;;;215542;1293;24310;-53
2022/01/20 01:27:19;;;;;;;5.80;3.80;;;12.90;48.40;;;;;;216037;1293;22578;-58
2022/01/20 01:32:40;;;;;;;5.80;3.60;;;12.90;48.50;;;;;;216038;1293;22877;-57
2022/01/20 01:43:06;;;;;;;7.90;4.60;;;12.90;48.30;;;;;;215888;1293;25569;-55
2022/01/20 01:48:09;;;;;;;7.50;4.10;;;12.90;48.40;;;;;;216025;1293;24243;-58
2022/01/20 01:53:16;;;;;;;5.60;3.50;;;12.90;48.30;;;;;;215984;1293;25922;-58
2022/01/20 01:58:20;;;;;;;5.80;3.60;;;12.90;48.20;;;;;;215725;1293;25302;-57
2022/01/20 02:03:45;;;;;;;7.30;3.90;;;12.90;48.20;;;;;;215545;1293;22567;-56
2022/01/20 02:19:48;;;;;;;5.20;3.50;;;12.80;48.40;;;;;;215585;1293;22872;-56
2022/01/20 02:25:30;;;;;;;5.60;3.50;;;12.80;48.50;;;;;;215087;1293;22569;-55
2022/01/20 02:30:35;;;;;;;5.90;3.60;;;12.80;48.40;;;;;;215997;1293;24421;-57
2022/01/20 02:35:44;;;;;;;5.00;3.10;;;12.80;48.50;;;;;;215616;1293;22572;-57
2022/01/20 02:46:33;;;;;;;5.70;3.50;;;12.80;48.90;;;;;;215907;1293;22593;-57
2022/01/20 02:51:56;;;;;;;5.40;3.20;;;12.80;48.50;;;;;;215627;1293;22571;-58
2022/01/20 02:57:08;;;;;;;6.90;3.50;;;12.80;48.60;;;;;;215665;1293;22605;-54
2022/01/20 03:02:13;;;;;;;6.20;3.30;;;12.80;48.50;;;;;;215711;1293;25611;-53
2022/01/20 03:07:17;;;;;;;4.70;3.10;;;12.80;49.00;;;;;;215806;1292;22615;-58
2022/01/20 03:12:21;;;;;;;5.00;3.10;;;12.80;48.60;;;;;;215594;1293;24358;-56
2022/01/20 03:17:24;;;;;;;5.10;3.20;;;12.80;48.50;;;;;;215446;1293;22567;-58
2022/01/20 03:22:28;;;;;;;4.80;3.10;;;12.80;48.60;;;;;;215495;1293;22601;-59
2022/01/20 03:27:31;;;;;;;4.90;3.10;;;12.80;48.60;;;;;;215624;1293;24319;-56
2022/01/20 03:32:36;;;;;;;6.00;3.10;;;12.80;48.60;;;;;;215564;1293;24816;-57
2022/01/20 03:37:41;;;;;;;5.10;3.40;;;12.80;48.60;;;;;;215577;1293;22588;-56
2022/01/20 03:42:44;;;;;;;4.60;2.70;;;12.70;48.50;;;;;;215820;1293;22629;-57
2022/01/20 03:47:51;;;;;;;5.00;3.00;;;12.80;48.60;;;;;;215691;1293;22612;-56
2022/01/20 03:52:55;;;;;;;4.60;2.70;;;12.80;48.60;;;;;;215723;1293;22593;-56
2022/01/20 03:57:59;;;;;;;5.70;3.20;;;12.80;48.50;;;;;;215851;1293;22570;-55
2022/01/20 04:03:12;;;;;;;4.20;2.90;;;12.80;48.60;;;;;;215687;1293;23578;-54
2022/01/20 04:08:26;;;;;;;4.70;3.20;;;12.80;48.60;;;;;;215837;1293;22728;-56
2022/01/20 04:13:30;;;;;;;4.10;2.40;;;12.80;48.50;;;;;;215568;1293;22583;-57
2022/01/20 04:18:35;;;;;;;4.50;2.80;;;12.80;48.60;;;;;;215587;1293;22579;-57
2022/01/20 04:23:38;;;;;;;4.10;2.70;;;12.80;48.60;;;;;;215501;1293;25325;-57
2022/01/20 04:28:42;;;;;;;4.90;3.20;;;12.70;48.50;;;;;;215700;1293;22590;-55
2022/01/20 04:33:53;;;;;;;3.60;2.20;;;12.70;48.60;;;;;;215683;1293;26755;-56
2022/01/20 04:39:00;;;;;;;4.50;2.60;;;12.70;48.50;;;;;;215989;1293;22571;-55
2022/01/20 04:44:16;;;;;;;5.10;2.80;;;12.80;48.60;;;;;;215807;1292;25374;-57
2022/01/20 05:00:06;;;;;;;5.30;2.80;;;12.80;48.50;;;;;;215702;1293;23153;-58
2022/01/20 05:05:24;;;;;;;4.10;2.30;;;12.70;48.50;;;;;;215567;1293;22584;-57
2022/01/20 05:10:35;;;;;;;4.50;2.60;;;12.70;48.50;;;;;;215500;1293;24354;-58
2022/01/20 05:15:39;;;;;;;5.20;2.40;;;12.80;48.60;;;;;;215457;1293;24632;-56
2022/01/20 05:20:43;;;;;;;4.30;2.40;;;12.70;48.50;;;;;;215600;1293;26542;-57
2022/01/20 05:25:47;;;;;;;4.20;2.30;;;12.70;48.60;;;;;;215748;1293;24442;-54
2022/01/20 05:30:51;;;;;;;3.60;2.10;;;12.70;48.50;;;;;;215779;1293;25526;-56
2022/01/20 05:35:55;;;;;;;4.40;2.30;;;12.70;48.90;;;;;;215666;1293;22573;-56
2022/01/20 05:40:58;;;;;;;3.80;2.40;;;12.70;48.60;;;;;;215934;1293;24290;-56
2022/01/20 05:46:04;;;;;;;6.90;2.10;;;12.70;49.00;;;;;;215643;1293;22572;-56
2022/01/20 05:51:08;;;;;;;3.60;2.10;;;12.70;48.70;;;;;;215393;1293;24427;-58
2022/01/20 05:56:12;;;;;;;4.10;2.10;;;12.70;48.50;;;;;;215508;1293;226712;-58
2022/01/20 06:01:19;;;;;;;4.70;2.00;;;12.70;48.50;;;;;;215657;1293;24303;-54
2022/01/20 06:06:22;;;;;;;3.60;2.20;;;12.70;48.60;;;;;;215585;1292;22585;-59
2022/01/20 06:11:26;;;;;;;4.00;2.40;;;12.60;48.60;;;;;;215589;1293;25738;-54
2022/01/20 06:16:31;;;;;;;3.40;1.90;;;12.70;48.60;;;;;;215648;1293;22570;-57
2022/01/20 06:21:34;;;;;;;3.80;2.00;;;12.70;48.50;;;;;;215548;1293;22758;-57
2022/01/20 06:26:38;;;;;;;4.10;2.90;;;12.70;48.80;;;;;;215799;1293;24301;-57
2022/01/20 06:31:44;;;;;;;6.50;2.20;;;12.70;48.50;;;;;;215807;1292;25259;-56
2022/01/20 06:36:53;;;;;;;4.50;2.40;;;12.70;48.50;;;;;;215755;1293;22643;-57
2022/01/20 06:41:57;;;;;;;6.10;2.00;;;12.70;48.50;;;;;;215705;1293;24497;-57
2022/01/20 06:47:04;;;;;;;3.90;2.20;;;12.70;48.40;;;;;;215758;1293;22576;-58
2022/01/20 06:52:09;;;;;;;3.90;2.40;;;12.70;48.50;;;;;;215777;1293;22565;-57
2022/01/20 06:57:13;;;;;;;3.60;2.00;;;12.70;48.50;;;;;;215892;1293;26004;-56
2022/01/20 07:02:17;;;;;;;4.20;2.10;;;12.70;48.50;;;;;;215653;1292;24335;-55
2022/01/20 07:07:21;;;;;;;4.20;2.20;;;12.60;48.50;;;;;;215730;1293;25048;-56
2022/01/20 07:12:46;;;;;;;3.70;1.90;;;12.60;48.50;;;;;;215532;1293;22585;-58
2022/01/20 07:17:52;;;;;;;3.40;1.80;;;12.60;48.60;;;;;;215570;1293;22584;-55
2022/01/20 07:23:02;;;;;;;3.70;1.90;;;12.60;48.50;;;;;;215710;1293;22576;-58
2022/01/20 07:28:10;;;;;;;4.80;2.20;;;12.60;48.50;;;;;;215742;1293;24023;-52
2022/01/20 07:33:15;;;;;;;3.50;1.80;;;12.60;48.80;;;;;;215537;1293;22652;-58
2022/01/20 07:38:20;;;;;;;4.00;1.60;;;12.60;48.90;;;;;;215664;1293;22595;-56
2022/01/20 07:43:23;;;;;;;3.30;2.00;;;12.60;48.60;;;;;;215644;1293;22693;-56
2022/01/20 07:48:30;;;;;;;3.30;1.80;;;12.50;48.90;;;;;;215678;1293;22835;-57
2022/01/20 07:53:48;;;;;;;5.00;2.00;;;12.60;48.80;;;;;;215772;1293;23197;-58
2022/01/20 07:58:53;;;;;;;3.50;1.80;;;12.60;48.60;;;;;;215684;1293;24427;-57
2022/01/20 08:03:57;;;;;;;3.80;1.60;;;12.50;48.70;;;;;;215872;1293;22589;-56
2022/01/20 08:09:04;;;;;;;2.90;1.40;;;12.50;48.70;;;;;;215712;1293;26621;-56
2022/01/20 08:14:32;;;;;;;4.30;2.30;;;12.50;48.70;;;;;;215618;1293;22592;-57
2022/01/20 08:19:36;;;;;;;3.80;1.60;;;12.50;48.60;;;;;;215804;1293;22758;-59
2022/01/20 08:24:43;;;;;;;5.40;2.00;;;12.50;48.60;;;;;;215675;1293;22589;-57
2022/01/20 08:29:48;;;;;;;3.90;1.80;;;12.50;48.60;;;;;;215788;1293;22608;-57
2022/01/20 08:34:58;;;;;;;3.40;1.70;;;12.50;48.50;;;;;;215723;1293;25313;-57
2022/01/20 08:40:14;;;;;;;4.10;1.70;;;12.50;49.20;;;;;;215662;1293;22564;-57
2022/01/20 08:45:22;;;;;;;4.50;1.80;;;12.60;48.50;;;;;;215762;1293;24561;-58
2022/01/20 08:50:32;;;;;;;3.20;1.60;;;12.50;48.50;;;;;;215805;1293;26679;-59
2022/01/20 08:55:42;;;;;;;2.70;1.40;;;12.60;49.20;;;;;;215879;1293;25484;-56
2022/01/20 09:00:50;;;;;;;3.30;1.80;;;12.60;48.00;;;;;;215603;1293;22747;-58
2022/01/20 09:05:55;;;;;;;3.00;1.50;;;12.50;48.60;;;;;;215786;1293;24246;-58
2022/01/20 09:11:18;;;;;;;2.60;1.40;;;12.40;49.00;;;;;;215633;1293;23107;-55
2022/01/20 09:16:22;;;;;;;3.90;1.70;;;12.50;48.70;;;;;;215593;1293;24450;-57
2022/01/20 09:21:50;;;;;;;2.20;1.20;;;12.50;48.70;;;;;;215756;1293;22616;-58
2022/01/20 09:26:54;;;;;;;4.00;1.70;;;12.50;48.70;;;;;;215688;1293;22577;-57
2022/01/20 09:31:59;;;;;;;2.70;1.50;;;12.50;48.60;;;;;;215632;1293;25376;-59
2022/01/20 09:37:05;;;;;;;2.80;1.60;;;12.40;49.00;;;;;;215601;1293;25401;-58
2022/01/20 09:42:13;;;;;;;3.90;2.00;;;12.50;48.70;;;;;;215665;1293;24364;-54
2022/01/20 09:47:19;;;;;;;3.10;1.40;;;12.50;48.70;;;;;;215724;1293;24240;-56
2022/01/20 09:52:43;;;;;;;2.80;1.40;;;12.40;48.60;;;;;;215922;1293;25484;-55
2022/01/20 09:58:06;;;;;;;;;;;12.40;49.10;;;;;;215856;1293;23492;-58
2022/01/20 10:03:13;;;;;;;3.90;1.80;;;12.40;48.70;;;;;;215573;1293;22596;-56
2022/01/20 10:08:22;;;;;;;2.70;1.40;;;12.40;48.70;;;;;;215899;1293;24301;-57
2022/01/20 10:13:57;;;;;;;3.00;1.30;;;12.40;48.70;;;;;;215534;1294;24264;-58
2022/01/20 10:19:28;;;;;;;3.30;1.50;;;12.40;49.20;;;;;;215905;1294;25560;-58
2022/01/20 10:24:38;;;;;;;3.60;1.30;;;12.40;48.90;;;;;;215659;1293;22570;-54
2022/01/20 10:30:01;;;;;;;2.70;1.30;;;12.40;48.80;;;;;;215603;1293;24429;-57
2022/01/20 10:35:10;;;;;;;3.50;1.50;;;12.40;48.80;;;;;;215824;1293;22721;-58
2022/01/20 10:40:16;;;;;;;3.00;1.50;;;12.40;49.10;;;;;;216035;1293;25443;-58
2022/01/20 10:45:34;;;;;;;2.10;1.30;;;12.60;48.60;;;;;;215539;1294;22570;-55
2022/01/20 10:50:40;;;;;;;3.70;1.50;;;12.70;48.50;;;;;;215688;1296;25573;-57
2022/01/20 10:55:47;;;;;;;2.60;1.30;;;12.80;48.30;;;;;;215808;1294;22609;-59
2022/01/20 11:00:55;;;;;;;3.90;1.20;;;12.90;48.10;;;;;;216027;1294;22572;-58
2022/01/20 11:06:05;;;;;;;3.10;1.40;;;12.90;48.10;;;;;;215755;1293;22595;-57
2022/01/20 11:11:15;;;;;;;4.30;1.50;;;12.90;48.10;;;;;;215544;1293;22575;-57
2022/01/20 11:16:39;;;;;;;2.60;1.20;;;12.90;48.10;;;;;;215675;1293;22592;-57
2022/01/20 11:21:48;;;;;;;2.70;1.40;;;13.00;47.90;;;;;;215745;1293;24721;-56
2022/01/20 11:26:57;;;;;;;3.00;1.40;;;13.10;47.90;;;;;;215648;1294;22673;-57
2022/01/20 11:32:26;;;;;;;3.00;1.40;;;13.10;48.00;;;;;;215870;1294;22757;-57
2022/01/20 11:37:55;;;;;;;2.90;1.20;;;13.20;47.70;;;;;;215788;1293;22630;-54
2022/01/20 11:43:09;;;;;;;2.00;1.20;;;13.20;47.70;;;;;;215669;1292;22980;-57
2022/01/20 11:48:19;;;;;;;3.40;1.40;;;13.20;47.80;;;;;;215866;1293;26544;-57
2022/01/20 11:53:22;;;;;;;3.30;1.30;;;13.20;47.80;;;;;;216005;1293;22662;-54
2022/01/20 11:58:27;;;;;;;3.40;1.40;;;13.20;47.90;;;;;;215702;1293;24263;-57
2022/01/20 12:03:32;;;;;;;3.50;1.20;;;13.20;48.00;;;;;;215795;1293;22578;-57
2022/01/20 12:09:04;;;;;;;2.50;1.20;;;13.10;48.10;;;;;;215723;1293;24466;-58
2022/01/20 12:14:08;;;;;;;2.40;1.20;;;13.10;48.10;;;;;;215672;1293;24500;-56
2022/01/20 12:19:12;;;;;;;3.30;1.20;;;13.10;48.10;;;;;;215631;1293;25330;-57
2022/01/20 12:24:16;;;;;;;2.50;1.20;;;13.10;48.00;;;;;;215739;1293;22589;-57
2022/01/20 12:29:20;;;;;;;2.20;1.20;;;13.10;48.00;;;;;;216034;1293;22768;-56
2022/01/20 12:34:24;;;;;;;4.00;1.50;;;13.00;48.10;;;;;;215770;1293;24329;-57
2022/01/20 12:39:32;;;;;;;2.40;1.10;;;13.00;48.10;;;;;;215771;1293;22570;-58
2022/01/20 12:45:00;;;;;;;2.30;1.10;;;13.00;48.10;;;;;;215995;1293;22615;-55
2022/01/20 12:50:08;;;;;;;3.40;1.20;;;13.10;48.10;;;;;;215831;1293;22641;-56
2022/01/20 12:55:21;;;;;;;3.30;1.40;;;13.00;48.10;;;;;;215648;1293;22595;-57
2022/01/20 13:00:39;;;;;;;1.80;1.00;;;12.90;48.20;;;;;;215676;1293;22600;-56
2022/01/20 13:05:47;;;;;;;3.00;1.20;;;12.90;48.10;;;;;;215798;1292;22918;-56
2022/01/20 13:11:08;;;;;;;2.50;1.20;;;12.90;48.20;;;;;;215821;1293;22589;-56
2022/01/20 13:16:18;;;;;;;2.10;1.00;;;13.00;48.00;;;;;;215887;1293;22593;-58
2022/01/20 13:21:41;;;;;;;2.70;1.10;;;13.10;47.90;;;;;;215752;1293;22571;-56
2022/01/20 13:26:50;;;;;;;2.70;1.20;;;13.10;47.90;;;;;;215915;1292;24411;-55
2022/01/20 13:31:57;;;;;;;3.00;1.10;;;13.10;47.90;;;;;;215869;1293;24292;-55
2022/01/20 13:37:02;;;;;;;3.90;1.10;;;13.10;48.20;;;;;;216043;1293;24430;-55
2022/01/20 13:42:33;;;;;;;2.30;1.20;;;13.10;48.20;;;;;;216175;1293;25565;-53
2022/01/20 13:47:46;;;;;;;2.70;1.10;;;13.10;47.80;;;;;;215694;1293;24251;-57
2022/01/20 13:52:55;;;;;;;2.40;1.00;;;13.10;48.10;;;;;;215952;1293;25322;-57
2022/01/20 13:58:02;;;;;;;2.30;1.00;;;13.10;47.80;;;;;;215734;1292;22585;-55
2022/01/20 14:03:11;;;;;;;2.80;1.30;;;13.10;47.80;;;;;;215721;1293;22566;-56
2022/01/20 14:08:23;;;;;;;2.30;1.20;;;13.10;47.70;;;;;;215794;1293;25871;-56
2022/01/20 14:13:30;;;;;;;2.60;1.10;;;13.10;48.00;;;;;;215868;1292;22595;-56
2022/01/20 14:18:41;;;;;;;2.10;0.90;;;13.10;47.60;;;;;;215863;1293;24425;-56
2022/01/20 14:23:46;;;;;;;;;;;13.00;47.90;;;;;;215789;1293;22556;-55
2022/01/20 14:28:51;;;;;;;2.40;1.10;;;13.00;47.90;;;;;;215786;1293;22599;-54
2022/01/20 14:33:54;;;;;;;2.90;1.10;;;12.90;48.10;;;;;;215729;1293;24275;-56
2022/01/20 14:39:03;;;;;;;3.70;1.10;;;12.80;48.10;;;;;;215766;1293;26580;-57
2022/01/20 14:44:09;;;;;;;2.20;1.00;;;12.80;48.30;;;;;;215838;1293;22595;-57
2022/01/20 14:49:20;;;;;;;;;;;12.70;48.30;;;;;;215884;1293;22564;-57
2022/01/20 14:54:27;;;;;;;4.10;1.40;;;12.80;48.30;;;;;;215733;1293;24759;-53
2022/01/20 15:00:07;;;;;;;2.50;1.10;;;12.80;48.10;;;;;;215635;1293;24306;-58
2022/01/20 15:05:18;;;;;;;2.70;1.20;;;12.70;48.50;;;;;;215850;1293;24312;-53
2022/01/20 15:10:23;;;;;;;1.40;0.80;;;12.80;48.30;;;;;;215753;1293;25347;-57
2022/01/20 15:15:53;;;;;;;2.60;1.30;;;12.70;48.10;;;;;;215554;1293;23517;-56
2022/01/20 15:21:00;;;;;;;1.70;0.90;;;12.70;48.10;;;;;;215810;1293;25382;-54
2022/01/20 15:26:05;;;;;;;2.80;1.10;;;12.70;48.30;;;;;;215531;1293;22572;-55
2022/01/20 15:31:15;;;;;;;2.50;1.00;;;12.70;48.10;;;;;;215635;1293;24285;-52
2022/01/20 15:36:19;;;;;;;2.10;1.00;;;12.70;48.30;;;;;;215809;1293;22609;-56
2022/01/20 15:41:28;;;;;;;2.00;1.10;;;12.70;48.30;;;;;;215877;1293;24331;-55
2022/01/20 15:46:37;;;;;;;2.30;1.00;;;12.70;48.60;;;;;;215886;1292;23953;-56
2022/01/20 15:51:42;;;;;;;4.10;1.10;;;12.70;48.40;;;;;;215776;1293;25356;-54
2022/01/20 15:56:48;;;;;;;3.10;1.10;;;12.60;48.20;;;;;;215644;1293;22669;-54
2022/01/20 16:01:52;;;;;;;2.90;1.00;;;12.70;48.10;;;;;;215643;1293;23049;-56
2022/01/20 16:06:56;;;;;;;3.00;1.20;;;12.70;48.00;;;;;;215820;1293;25394;-57
2022/01/20 16:12:03;;;;;;;2.10;0.90;;;12.70;48.30;;;;;;215723;1293;24179;-53
2022/01/20 16:17:09;;;;;;;2.50;1.10;;;12.70;48.20;;;;;;215722;1293;24357;-58
2022/01/20 16:22:16;;;;;;;2.20;1.10;;;12.60;48.10;;;;;;215938;1293;26700;-57
2022/01/20 16:27:20;;;;;;;2.60;1.10;;;12.60;48.00;;;;;;215815;1293;26589;-55
2022/01/20 16:32:23;;;;;;;2.40;1.00;;;12.60;48.10;;;;;;215751;1293;25691;-57
2022/01/20 16:37:27;;;;;;;3.50;1.20;;;12.50;48.00;;;;;;215666;1293;24442;-56
2022/01/20 16:42:41;;;;;;;3.40;1.40;;;12.60;47.90;;;;;;215634;1293;25377;-56
2022/01/20 16:47:49;;;;;;;2.80;0.90;;;12.50;48.40;;;;;;216072;1293;22628;-54
2022/01/20 16:52:56;;;;;;;3.00;1.10;;;12.50;48.00;;;;;;215696;1293;22617;-55
2022/01/20 16:58:08;;;;;;;3.40;1.20;;;12.50;48.30;;;;;;215713;1292;24314;-59
2022/01/20 17:03:18;;;;;;;2.80;1.30;;;12.50;48.00;;;;;;215880;1293;25161;-55
2022/01/20 17:08:27;;;;;;;2.20;1.10;;;12.50;48.00;;;;;;215657;1293;25362;-56
2022/01/20 17:13:44;;;;;;;3.00;1.10;;;12.50;47.80;;;;;;215481;1293;24257;-55
2022/01/20 17:18:47;;;;;;;2.80;1.10;;;12.50;48.40;;;;;;215721;1292;26551;-58
2022/01/20 17:23:53;;;;;;;2.10;1.10;;;12.50;48.30;;;;;;215657;1293;24262;-56
2022/01/20 17:28:56;;;;;;;3.20;1.10;;;12.50;47.90;;;;;;215730;1293;22603;-58
2022/01/20 17:34:02;;;;;;;2.60;1.10;;;12.50;48.00;;;;;;215706;1293;22573;-56
2022/01/20 17:39:09;;;;;;;2.30;1.10;;;12.40;48.00;;;;;;215704;1293;22547;-56
2022/01/20 17:44:18;;;;;;;3.20;1.10;;;12.40;48.70;;;;;;215931;1293;24271;-57
2022/01/20 17:49:26;;;;;;;2.30;1.00;;;12.40;48.10;;;;;;215943;1293;22567;-54
2022/01/20 17:54:30;;;;;;;2.30;1.10;;;12.40;48.10;;;;;;215553;1293;191001;-56
2022/01/20 17:59:36;;;;;;;2.60;1.10;;;12.40;48.10;;;;;;215612;1293;22582;-56
2022/01/20 18:04:40;;;;;;;3.00;1.10;;;12.40;48.00;;;;;;215890;1293;25302;-54
2022/01/20 18:09:45;;;;;;;2.30;1.10;;;12.40;48.10;;;;;;215943;1292;26597;-56
2022/01/20 18:14:49;;;;;;;3.00;0.80;;;12.30;48.10;;;;;;215618;1293;25377;-56
2022/01/20 18:19:54;;;;;;;3.00;0.90;;;12.40;48.40;;;;;;215918;1293;22719;-59
2022/01/20 18:24:58;;;;;;;2.30;1.20;;;12.40;48.40;;;;;;215425;1293;24371;-58
2022/01/20 18:30:03;;;;;;;4.50;1.40;;;12.30;48.10;;;;;;215732;1293;24483;-56
2022/01/20 18:35:08;;;;;;;2.00;0.90;;;12.30;48.20;;;;;;215738;1292;22573;-56
2022/01/20 18:40:13;;;;;;;3.20;1.00;;;12.30;48.20;;;;;;215677;1293;26564;-56
2022/01/20 18:45:19;;;;;;;2.40;1.20;;;12.30;48.50;;;;;;216002;1293;22600;-56
2022/01/20 18:50:23;;;;;;;2.60;1.00;;;12.40;48.00;;;;;;215743;1293;24450;-55
2022/01/20 18:55:28;;;;;;;2.40;1.00;;;12.40;48.00;;;;;;215792;1292;22592;-57
2022/01/20 19:00:33;;;;;;;2.20;1.00;;;12.40;48.00;;;;;;215738;1293;22803;-57
2022/01/20 19:05:40;;;;;;;2.20;1.10;;;12.30;48.30;;;;;;216002;1293;24366;-55
2022/01/20 19:10:56;;;;;;;1.70;0.80;;;12.30;48.10;;;;;;215596;1293;25308;-57
2022/01/20 19:16:10;;;;;;;2.50;1.10;;;12.30;48.60;;;;;;215822;1293;22572;-56
2022/01/20 19:21:23;;;;;;;2.30;1.00;;;12.30;48.10;;;;;;215875;1293;22602;-54
2022/01/20 19:26:28;;;;;;;2.40;1.00;;;12.30;48.00;;;;;;215725;1293;22573;-54
2022/01/20 19:31:43;;;;;;;3.20;1.20;;;12.30;48.10;;;;;;215812;1293;24506;-59
2022/01/20 19:36:59;;;;;;;2.20;1.00;;;12.20;48.10;;;;;;215776;1293;22735;-54
2022/01/20 19:42:05;;;;;;;2.50;0.90;;;12.20;48.40;;;;;;216004;1293;22577;-56
2022/01/20 19:47:11;;;;;;;2.20;1.00;;;12.20;48.20;;;;;;216022;1293;22603;-56
2022/01/20 19:52:26;;;;;;;1.70;0.80;;;12.20;48.20;;;;;;215993;1293;22775;-53
2022/01/20 19:57:40;;;;;;;2.80;0.90;;;12.20;48.20;;;;;;215757;1293;25471;-56
2022/01/20 20:02:49;;;;;;;3.20;1.10;;;12.20;48.50;;;;;;215859;1293;25306;-57
2022/01/20 20:07:53;;;;;;;2.10;1.00;;;12.20;48.10;;;;;;215696;1293;23107;-54
2022/01/20 20:12:59;;;;;;;3.30;1.00;;;12.20;48.10;;;;;;215522;1293;22608;-58
2022/01/20 20:18:06;;;;;;;2.30;0.90;;;12.20;48.00;;;;;;215564;1293;22619;-57
2022/01/20 20:23:20;;;;;;;3.10;1.10;;;12.20;47.90;;;;;;215843;1293;22677;-56
2022/01/20 20:28:26;;;;;;;2.20;1.00;;;12.20;47.90;;;;;;215740;1292;22756;-56
2022/01/20 20:33:33;;;;;;;1.90;0.80;;;12.20;48.30;;;;;;215853;1293;22596;-55
2022/01/20 20:38:46;;;;;;;2.60;1.10;;;12.10;48.10;;;;;;215940;1293;24338;-57
2022/01/20 20:44:10;;;;;;;3.70;1.20;;;12.20;48.10;;;;;;215903;1293;24206;-55
2022/01/20 20:49:20;;;;;;;2.00;1.10;;;12.20;48.00;;;;;;215903;1293;24265;-55
2022/01/20 20:54:35;;;;;;;4.60;1.20;;;12.20;48.10;;;;;;215760;1293;22617;-55
2022/01/20 20:59:49;;;;;;;3.40;1.20;;;12.10;48.10;;;;;;216025;1293;22740;-55
2022/01/20 21:05:08;;;;;;;3.40;1.40;;;12.10;48.20;;;;;;215850;1293;25541;-56
2022/01/20 21:10:22;;;;;;;2.10;1.00;;;12.10;47.70;;;;;;215852;1293;25522;-57
2022/01/20 21:15:29;;;;;;;2.30;1.10;;;12.20;48.00;;;;;;215828;1293;22570;-57
2022/01/20 21:20:35;;;;;;;2.30;1.00;;;12.20;47.80;;;;;;215586;1293;22594;-55
2022/01/20 21:25:38;;;;;;;2.40;1.00;;;12.20;47.80;;;;;;215909;1293;24464;-55
2022/01/20 21:30:42;;;;;;;3.50;1.30;;;12.20;48.10;;;;;;215837;1293;24307;-55
2022/01/20 21:35:47;;;;;;;2.30;1.00;;;12.20;48.00;;;;;;215925;1293;25289;-56
2022/01/20 21:40:51;;;;;;;2.90;1.20;;;12.20;47.80;;;;;;215999;1293;24363;-57
2022/01/20 21:45:57;;;;;;;2.00;1.00;;;12.20;47.80;;;;;;215944;1293;24280;-52
2022/01/20 21:51:03;;;;;;;3.20;1.40;;;12.10;48.20;;;;;;215744;1293;23357;-56
2022/01/20 21:56:14;;;;;;;2.60;1.10;;;12.10;47.80;;;;;;215840;1291;24466;-54
2022/01/20 22:01:21;;;;;;;2.60;1.00;;;12.20;47.80;;;;;;215884;1292;25560;-57
2022/01/20 22:06:25;;;;;;;2.70;1.30;;;12.10;48.00;;;;;;215928;1293;22735;-59
2022/01/20 22:11:31;;;;;;;4.60;1.40;;;12.10;47.90;;;;;;215618;1293;22714;-55
2022/01/20 22:16:35;;;;;;;3.50;1.20;;;12.10;47.90;;;;;;215657;1293;22596;-56
2022/01/20 22:21:44;;;;;;;2.40;1.10;;;12.10;47.80;;;;;;215535;1293;22776;-56
2022/01/20 22:26:48;;;;;;;2.80;1.20;;;12.10;47.70;;;;;;215432;1293;24480;-59
2022/01/20 22:31:54;;;;;;;3.50;1.20;;;12.10;47.80;;;;;;215624;1293;25652;-56
2022/01/20 22:36:58;;;;;;;2.60;1.20;;;12.10;47.80;;;;;;215607;1292;25374;-52
2022/01/20 22:42:01;;;;;;;3.00;1.10;;;12.10;48.20;;;;;;215646;1293;24606;-57
2022/01/20 22:47:06;;;;;;;3.30;1.30;;;12.00;48.00;;;;;;215897;1293;22639;-56
2022/01/20 22:52:09;;;;;;;3.10;1.10;;;12.00;48.10;;;;;;215814;1293;22582;-55
2022/01/20 22:57:13;;;;;;;3.70;1.40;;;11.90;48.10;;;;;;215660;1293;24329;-56
2022/01/20 23:02:16;;;;;;;2.40;1.20;;;12.00;48.00;;;;;;215668;1293;24350;-55
2022/01/20 23:07:20;;;;;;;2.30;1.00;;;11.90;48.10;;;;;;215758;1293;24508;-57
2022/01/20 23:12:24;;;;;;;2.90;1.20;;;12.00;48.10;;;;;;215690;1293;22612;-57
2022/01/20 23:17:35;;;;;;;3.30;1.00;;;11.90;48.40;;;;;;215646;1293;22573;-55
2022/01/20 23:22:38;;;;;;;2.70;1.00;;;11.90;48.10;;;;;;215554;1293;25265;-53
2022/01/20 23:27:42;;;;;;;2.40;1.00;;;11.90;48.10;;;;;;215575;1293;25305;-56
2022/01/20 23:32:45;;;;;;;2.90;1.10;;;11.90;48.10;;;;;;215668;1293;22575;-55
2022/01/20 23:37:52;;;;;;;3.20;1.40;;;11.90;48.10;;;;;;215855;1293;24299;-52
2022/01/20 23:43:16;;;;;;;2.70;1.10;;;11.90;48.10;;;;;;215679;1293;22589;-57
2022/01/20 23:48:19;;;;;;;2.30;1.00;;;11.90;48.10;;;;;;215591;1292;24294;-57
2022/01/20 23:53:23;;;;;;;3.30;1.00;;;11.80;48.00;;;;;;215782;1293;22595;-57
2022/01/20 23:58:27;;;;;;;2.20;1.00;;;11.90;48.30;;;;;;215678;1293;25293;-57
